Time;durP1;ratioP1;P1;durP2;ratioP2;P2;SDS_P1;SDS_P2;PMS_P1;PMS_P2;Temp;Humidity;BMP_temperature;BMP_pressure;BME280_temperature;BME280_humidity;BME280_pressure;Samples;Min_cycle;Max_cycle;Signal;HPM_P1;HPM_P2
2021/08/21 00:00:49;;;;;;;;;31.75;30.75;;;;;22.76;91.57;100714.44;4941375;28;8869;-73
2021/08/21 00:03:45;;;;;;;;;34.25;32.25;;;;;23.18;89.14;100720.19;4962579;28;8870;-72
2021/08/21 00:06:27;;;;;;;;;36.50;33.50;;;;;23.21;89.12;100708.88;4977014;28;8867;-73
2021/08/21 00:09:22;;;;;;;;;31.00;30.00;;;;;23.13;90.07;100712.16;4976050;28;8972;-73
2021/08/21 00:12:18;;;;;;;;;33.75;32.00;;;;;23.13;90.24;100703.69;4975911;28;8873;-73
2021/08/21 00:15:16;;;;;;;;;35.75;33.00;;;;;22.94;91.52;100705.88;4975849;28;8870;-72
2021/08/21 00:18:03;;;;;;;;;30.75;30.00;;;;;23.00;91.33;100692.94;4977067;28;8886;-73
2021/08/21 00:20:59;;;;;;;;;29.75;28.75;;;;;23.29;89.59;100695.50;4975843;28;8839;-73
2021/08/21 00:23:55;;;;;;;;;34.00;32.00;;;;;23.36;88.97;100697.44;4958594;28;9564;-72
2021/08/21 00:26:22;;;;;;;;;36.00;33.00;;;;;23.27;89.93;100706.41;4976963;28;8854;-73
2021/08/21 00:28:50;;;;;;;;;31.50;30.50;;;;;23.07;91.53;100708.19;4976914;28;8846;-73
2021/08/21 00:31:45;;;;;;;;;34.00;31.50;;;;;22.88;93.07;100710.34;4975550;28;8924;-72
2021/08/21 00:34:14;;;;;;;;;32.75;31.75;;;;;22.71;94.16;100711.28;4976586;28;8940;-73
2021/08/21 00:37:10;;;;;;;;;36.25;33.25;;;;;22.55;94.98;100702.53;4962738;28;8854;-72
2021/08/21 00:40:06;;;;;;;;;42.00;34.75;;;;;22.48;95.52;100706.97;4975493;28;8873;-72
2021/08/21 00:43:02;;;;;;;;;36.75;33.75;;;;;22.33;95.87;100701.84;4975482;28;8866;-73
2021/08/21 00:45:58;;;;;;;;;28.75;28.75;;;;;22.25;95.75;100701.09;4975276;28;8846;-73
2021/08/21 00:48:53;;;;;;;;;26.75;26.75;;;;;23.07;90.45;100703.34;4962455;28;8866;-73
2021/08/21 00:51:49;;;;;;;;;30.00;29.75;;;;;23.38;88.51;100698.63;4975369;28;8924;-73
2021/08/21 00:54:45;;;;;;;;;31.25;30.25;;;;;23.40;88.51;100695.41;4975180;28;8893;-72
2021/08/21 00:57:40;;;;;;;;;32.50;30.25;;;;;23.68;86.15;100695.09;4975105;28;8973;-73
2021/08/21 01:00:36;;;;;;;;;35.00;32.75;;;;;23.51;86.69;100690.44;4975085;28;8964;-72
2021/08/21 01:03:04;;;;;;;;;30.00;29.75;;;;;23.07;88.96;100702.53;4976009;28;8886;-73
2021/08/21 01:06:00;;;;;;;;;35.25;32.25;;;;;23.17;88.85;100690.38;4974880;28;8850;-72
2021/08/21 01:08:55;;;;;;;;;32.50;31.50;;;;;23.22;88.28;100693.53;4962051;28;8854;-73
2021/08/21 01:11:51;;;;;;;;;37.25;33.25;;;;;23.19;88.38;100691.56;4955727;28;8845;-73
2021/08/21 01:14:34;;;;;;;;;42.25;36.75;;;;;23.29;87.50;100699.09;4955538;28;8957;-73
2021/08/21 01:17:04;;;;;;;;;27.75;27.75;;;;;23.67;85.65;100701.19;4956771;28;8868;-73
2021/08/21 01:19:59;;;;;;;;;46.00;39.25;;;;;23.29;88.01;100706.78;4942655;28;8907;-73
2021/08/21 01:22:56;;;;;;;;;30.75;30.00;;;;;23.49;86.08;100699.31;4955307;28;8884;-73
2021/08/21 01:25:52;;;;;;;;;33.00;31.50;;;;;23.77;84.40;100701.06;4942631;28;8853;-73
2021/08/21 01:28:47;;;;;;;;;38.00;35.00;;;;;23.55;85.97;100700.47;4955318;28;8927;-73
2021/08/21 01:31:43;;;;;;;;;28.50;28.50;;;;;23.49;85.89;100693.69;4955995;28;9600;-73
2021/08/21 01:34:39;;;;;;;;;40.75;36.00;;;;;23.41;86.45;100694.19;4963967;28;8875;-73
2021/08/21 01:37:07;;;;;;;;;42.75;37.50;;;;;23.34;87.46;100691.44;4964169;28;8885;-73
2021/08/21 01:40:03;;;;;;;;;39.50;35.50;;;;;23.16;88.67;100697.25;4975165;28;8881;-73
2021/08/21 01:42:58;;;;;;;;;35.50;33.00;;;;;23.05;89.59;100696.53;4986483;28;8860;-73
2021/08/21 01:45:28;;;;;;;;;39.50;35.25;;;;;22.86;90.49;100698.69;4994747;28;8876;-73
2021/08/21 01:48:23;;;;;;;;;36.50;33.75;;;;;23.31;87.49;100698.72;4993789;28;8899;-73
2021/08/21 01:51:20;;;;;;;;;23.25;23.25;;;;;23.37;87.56;100704.69;4993659;28;8840;-73
2021/08/21 01:54:24;;;;;;;;;36.00;33.25;;;;;23.29;88.22;100707.56;4993593;28;8970;-73
2021/08/21 01:56:54;;;;;;;;;31.75;30.75;;;;;23.49;86.76;100712.63;4988310;28;9625;-74
2021/08/21 01:59:51;;;;;;;;;31.00;30.00;;;;;23.70;84.98;100706.00;4974120;28;8936;-73
2021/08/21 02:02:47;;;;;;;;;25.00;25.00;;;;;23.46;86.14;100705.00;4960719;28;8850;-73
2021/08/21 02:05:42;;;;;;;;;30.00;30.00;;;;;23.24;86.75;100710.06;4961105;28;8893;-73
2021/08/21 02:08:38;;;;;;;;;26.00;26.00;;;;;23.26;86.95;100716.88;4974025;28;8865;-73
2021/08/21 02:11:34;;;;;;;;;28.25;28.25;;;;;23.29;86.95;100709.59;4973870;28;8913;-73
2021/08/21 02:14:29;;;;;;;;;28.50;27.25;;;;;23.18;87.19;100712.53;4973705;28;8854;-73
2021/08/21 02:17:25;;;;;;;;;25.75;25.75;;;;;23.29;86.63;100718.84;4973858;28;9613;-73
2021/08/21 02:20:21;;;;;;;;;27.75;27.25;;;;;23.26;87.10;100719.72;4973528;28;8929;-73
2021/08/21 02:23:16;;;;;;;;;30.75;30.00;;;;;23.24;87.00;100713.69;4973363;28;8901;-73
2021/08/21 02:26:12;;;;;;;;;24.50;24.50;;;;;23.09;87.29;100709.38;4960805;28;8855;-73
2021/08/21 02:29:09;;;;;;;;;28.25;28.25;;;;;23.15;87.55;100718.19;4973471;28;8863;-73
2021/08/21 02:32:07;;;;;;;;;25.75;25.75;;;;;23.01;88.37;100722.75;4973606;28;8892;-73
2021/08/21 02:35:03;;;;;;;;;31.00;30.50;;;;;22.70;89.88;100720.94;4973450;28;9609;-73
2021/08/21 02:38:00;;;;;;;;;31.75;30.00;;;;;22.97;88.96;100724.78;4973529;28;8842;-73
2021/08/21 02:40:55;;;;;;;;;32.25;30.00;;;;;22.98;88.86;100726.38;4973394;28;8882;-73
2021/08/21 02:43:51;;;;;;;;;27.75;27.75;;;;;23.08;88.34;100721.06;4973296;28;8878;-73
2021/08/21 02:46:46;;;;;;;;;28.00;28.00;;;;;23.28;87.06;100724.94;4972823;28;8854;-73
2021/08/21 02:49:42;;;;;;;;;27.25;27.25;;;;;23.17;87.73;100727.84;4973342;28;8842;-73
2021/08/21 02:52:37;;;;;;;;;32.00;31.00;;;;;23.35;86.26;100721.25;4973143;28;8858;-73
2021/08/21 02:55:33;;;;;;;;;29.50;29.25;;;;;23.21;86.55;100716.53;4960451;28;8842;-73
2021/08/21 02:58:15;;;;;;;;;29.50;29.25;;;;;23.18;87.13;100720.19;4991526;28;8904;-73
2021/08/21 03:01:10;;;;;;;;;33.25;30.50;;;;;23.02;88.16;100717.91;4992575;28;9007;-73
2021/08/21 03:04:06;;;;;;;;;28.50;28.50;;;;;22.97;88.35;100723.97;4953543;28;8864;-72
2021/08/21 03:07:02;;;;;;;;;32.50;30.75;;;;;23.22;86.70;100724.56;4953813;28;9004;-73
2021/08/21 03:09:57;;;;;;;;;28.50;27.00;;;;;23.15;87.53;100724.63;4953793;28;8884;-73
2021/08/21 03:12:53;;;;;;;;;28.25;27.50;;;;;23.23;86.82;100728.19;4953794;29;8837;-73
2021/08/21 03:15:48;;;;;;;;;28.00;28.00;;;;;23.16;87.53;100733.91;4957209;28;8875;-72
2021/08/21 03:18:44;;;;;;;;;28.00;28.00;;;;;23.21;86.83;100741.91;4967602;28;8913;-73
2021/08/21 03:21:39;;;;;;;;;28.75;27.00;;;;;23.28;85.85;100744.69;4961659;28;8858;-73
2021/08/21 03:24:07;;;;;;;;;25.50;25.25;;;;;23.30;86.13;100740.22;4973943;28;8940;-73
2021/08/21 03:27:03;;;;;;;;;28.50;28.50;;;;;23.20;86.40;100749.56;4972971;28;8835;-73
2021/08/21 03:29:59;;;;;;;;;26.50;26.50;;;;;23.22;86.60;100752.78;4972807;28;8858;-73
2021/08/21 03:32:54;;;;;;;;;29.00;28.60;;;;;23.34;85.78;100745.84;4972874;28;8901;-72
2021/08/21 03:35:51;;;;;;;;;26.25;26.25;;;;;23.39;85.59;100742.56;4973609;28;8854;-73
2021/08/21 03:38:19;;;;;;;;;25.75;25.75;;;;;23.24;85.96;100747.53;4956893;28;8858;-73
2021/08/21 03:41:15;;;;;;;;;27.25;27.25;;;;;23.25;85.58;100740.69;4972986;28;8912;-73
2021/08/21 03:43:58;;;;;;;;;28.00;28.00;;;;;23.17;86.16;100749.63;4974958;28;8856;-72
2021/08/21 03:46:25;;;;;;;;;28.75;28.75;;;;;23.00;87.67;100740.06;4956590;28;8890;-72
2021/08/21 03:49:21;;;;;;;;;22.25;22.25;;;;;22.87;88.36;100751.06;4972659;28;8858;-72
2021/08/21 03:52:16;;;;;;;;;3.00;3.00;;;;;22.92;88.60;100758.25;4971813;28;8851;-72
2021/08/21 03:55:12;;;;;;;;;25.50;25.50;;;;;23.02;87.76;100754.56;4972605;28;8862;-72
2021/08/21 03:58:07;;;;;;;;;27.00;27.00;;;;;23.30;86.60;100757.13;4973931;28;9032;-72
2021/08/21 04:01:03;;;;;;;;;25.00;25.00;;;;;23.19;86.44;100759.25;4969292;28;8940;-73
2021/08/21 04:03:30;;;;;;;;;26.00;25.00;;;;;23.19;86.57;100764.91;4970127;28;8866;-72
2021/08/21 04:06:26;;;;;;;;;27.75;27.75;;;;;23.23;86.58;100765.69;4958566;28;8875;-72
2021/08/21 04:09:22;;;;;;;;;27.00;27.00;;;;;23.39;85.93;100758.72;4966979;28;8850;-72
2021/08/21 04:12:18;;;;;;;;;26.00;26.00;;;;;23.35;86.20;100766.38;4968614;28;8845;-72
2021/08/21 04:15:14;;;;;;;;;24.25;24.25;;;;;23.33;86.04;100771.66;4970023;28;8854;-72
2021/08/21 04:18:01;;;;;;;;;26.75;26.50;;;;;23.28;86.56;100773.69;4970535;28;8908;-73
2021/08/21 04:20:57;;;;;;;;;25.20;25.20;;;;;23.35;85.94;100772.84;4965134;28;8870;-73
2021/08/21 04:23:25;;;;;;;;;21.00;21.00;;;;;23.32;86.19;100775.69;4969869;28;9609;-73
2021/08/21 04:25:59;;;;;;;;;24.20;24.20;;;;;23.56;84.57;100778.28;4971255;28;9702;-73
2021/08/21 04:28:54;;;;;;;;;23.00;23.00;;;;;23.45;83.96;100779.59;4967977;28;9016;-73
2021/08/21 04:31:50;;;;;;;;;25.25;25.00;;;;;23.71;83.63;100772.53;4957012;28;8841;-73
2021/08/21 04:34:46;;;;;;;;;21.40;20.60;;;;;23.75;82.62;100779.72;4958298;28;8884;-73
2021/08/21 04:37:41;;;;;;;;;24.00;23.00;;;;;23.56;82.61;100778.28;4970289;28;8891;-73
2021/08/21 04:40:13;;;;;;;;;25.00;25.00;;;;;23.77;82.77;100787.78;4970677;28;8893;-73
2021/08/21 04:42:41;;;;;;;;;24.40;24.40;;;;;23.69;82.91;100780.59;4967484;28;8898;-72
2021/08/21 04:45:37;;;;;;;;;24.00;23.00;;;;;23.74;83.39;100788.63;4970274;28;8846;-74
2021/08/21 04:48:13;;;;;;;;;27.60;27.60;;;;;23.69;82.88;100791.91;4970885;28;8862;-74
2021/08/21 04:50:46;;;;;;;;;26.40;26.40;;;;;23.68;82.70;100799.56;4967241;28;9639;-73
2021/08/21 04:53:41;;;;;;;;;25.80;25.80;;;;;23.52;83.19;100797.25;4959344;28;8869;-74
2021/08/21 04:56:37;;;;;;;;;24.20;24.20;;;;;23.62;82.84;100795.63;4975214;28;8961;-74
